sensor_id;sensor_type;location;lat;lon;timestamp;pressure;altitude;pressure_sealevel;temperature;humidity
57574;BME280;63722;48.858;21.906;2022-10-30T00:00:26;99327.66;;;18.32;55.93
57574;BME280;63722;48.858;21.906;2022-10-30T00:02:52;99328.25;;;18.34;55.40
57574;BME280;63722;48.858;21.906;2022-10-30T00:05:17;99324.56;;;18.35;55.90
57574;BME280;63722;48.858;21.906;2022-10-30T00:07:44;99322.13;;;18.34;55.82
57574;BME280;63722;48.858;21.906;2022-10-30T00:10:09;99304.97;;;18.30;55.73
57574;BME280;63722;48.858;21.906;2022-10-30T00:12:35;99309.88;;;18.33;55.87
57574;BME280;63722;48.858;21.906;2022-10-30T00:15:00;99300.88;;;18.34;55.65
57574;BME280;63722;48.858;21.906;2022-10-30T00:17:26;99302.72;;;18.33;55.92
57574;BME280;63722;48.858;21.906;2022-10-30T00:19:51;99294.97;;;18.32;55.71
57574;BME280;63722;48.858;21.906;2022-10-30T00:22:17;99308.63;;;18.35;55.88
57574;BME280;63722;48.858;21.906;2022-10-30T00:24:42;99316.59;;;18.35;55.96
57574;BME280;63722;48.858;21.906;2022-10-30T00:27:07;99303.34;;;18.29;55.73
57574;BME280;63722;48.858;21.906;2022-10-30T00:29:33;99298.00;;;18.35;55.84
57574;BME280;63722;48.858;21.906;2022-10-30T00:31:58;99286.56;;;18.35;55.77
57574;BME280;63722;48.858;21.906;2022-10-30T00:34:23;99270.25;;;18.31;55.87
57574;BME280;63722;48.858;21.906;2022-10-30T00:36:49;99288.41;;;18.34;55.95
57574;BME280;63722;48.858;21.906;2022-10-30T00:39:14;99292.09;;;18.33;55.99
57574;BME280;63722;48.858;21.906;2022-10-30T00:41:39;99280.28;;;18.29;55.81
57574;BME280;63722;48.858;21.906;2022-10-30T00:46:58;99275.34;;;18.33;56.03
57574;BME280;63722;48.858;21.906;2022-10-30T00:49:32;99269.03;;;18.27;55.53
57574;BME280;63722;48.858;21.906;2022-10-30T00:52:00;99272.91;;;18.31;55.77
57574;BME280;63722;48.858;21.906;2022-10-30T00:54:27;99268.63;;;18.30;55.71
57574;BME280;63722;48.858;21.906;2022-10-30T00:56:53;99293.13;;;18.32;55.97
57574;BME280;63722;48.858;21.906;2022-10-30T00:59:25;99286.63;;;18.28;55.60
57574;BME280;63722;48.858;21.906;2022-10-30T01:01:52;99304.56;;;18.33;56.00
57574;BME280;63722;48.858;21.906;2022-10-30T01:04:19;99316.41;;;18.30;55.79
57574;BME280;63722;48.858;21.906;2022-10-30T01:06:45;99311.09;;;18.30;55.60
57574;BME280;63722;48.858;21.906;2022-10-30T01:09:13;99318.84;;;18.32;55.62
57574;BME280;63722;48.858;21.906;2022-10-30T01:11:39;99301.09;;;18.32;55.85
57574;BME280;63722;48.858;21.906;2022-10-30T01:14:06;99292.28;;;18.32;55.91
57574;BME280;63722;48.858;21.906;2022-10-30T01:30:31;99296.81;;;18.31;55.86
57574;BME280;63722;48.858;21.906;2022-10-30T01:36:07;99285.38;;;18.31;55.66
57574;BME280;63722;48.858;21.906;2022-10-30T01:38:52;99261.28;;;18.25;55.85
57574;BME280;63722;48.858;21.906;2022-10-30T01:41:19;99246.41;;;18.24;55.75
57574;BME280;63722;48.858;21.906;2022-10-30T01:43:47;99251.09;;;18.29;55.47
57574;BME280;63722;48.858;21.906;2022-10-30T01:46:43;99249.44;;;18.28;55.59
57574;BME280;63722;48.858;21.906;2022-10-30T01:49:26;99251.09;;;18.29;55.75
57574;BME280;63722;48.858;21.906;2022-10-30T01:55:04;99255.34;;;18.30;55.80
57574;BME280;63722;48.858;21.906;2022-10-30T01:58:18;99267.81;;;18.30;55.92
57574;BME280;63722;48.858;21.906;2022-10-30T02:00:48;99269.44;;;18.31;55.66
57574;BME280;63722;48.858;21.906;2022-10-30T02:03:17;99272.31;;;18.29;55.76
57574;BME280;63722;48.858;21.906;2022-10-30T02:05:47;99271.09;;;18.25;55.64
57574;BME280;63722;48.858;21.906;2022-10-30T02:08:13;99269.03;;;18.27;55.87
57574;BME280;63722;48.858;21.906;2022-10-30T02:10:40;99269.66;;;18.29;55.47
57574;BME280;63722;48.858;21.906;2022-10-30T02:13:06;99263.56;;;18.22;55.71
57574;BME280;63722;48.858;21.906;2022-10-30T02:15:32;99261.50;;;18.24;55.61
57574;BME280;63722;48.858;21.906;2022-10-30T02:17:57;99263.72;;;18.27;55.59
57574;BME280;63722;48.858;21.906;2022-10-30T02:20:23;99258.06;;;18.23;55.48
57574;BME280;63722;48.858;21.906;2022-10-30T02:22:49;99265.00;;;18.24;55.72
57574;BME280;63722;48.858;21.906;2022-10-30T02:25:15;99272.34;;;18.22;55.59
57574;BME280;63722;48.858;21.906;2022-10-30T02:27:41;99269.91;;;18.21;55.79
57574;BME280;63722;48.858;21.906;2022-10-30T02:30:07;99273.59;;;18.20;55.67
57574;BME280;63722;48.858;21.906;2022-10-30T02:32:32;99279.66;;;18.27;55.77
57574;BME280;63722;48.858;21.906;2022-10-30T02:34:58;99284.97;;;18.27;55.61
57574;BME280;63722;48.858;21.906;2022-10-30T02:37:23;99285.81;;;18.28;55.74
57574;BME280;63722;48.858;21.906;2022-10-30T02:39:49;99282.31;;;18.27;55.88
57574;BME280;63722;48.858;21.906;2022-10-30T02:42:15;99278.47;;;18.23;55.55
57574;BME280;63722;48.858;21.906;2022-10-30T02:44:40;99280.72;;;18.26;55.71
57574;BME280;63722;48.858;21.906;2022-10-30T02:47:06;99286.81;;;18.27;55.94
57574;BME280;63722;48.858;21.906;2022-10-30T02:49:31;99283.78;;;18.23;55.84
57574;BME280;63722;48.858;21.906;2022-10-30T02:51:57;99284.97;;;18.27;55.54
57574;BME280;63722;48.858;21.906;2022-10-30T02:54:22;99286.81;;;18.27;55.64
57574;BME280;63722;48.858;21.906;2022-10-30T02:56:47;99287.03;;;18.25;55.46
57574;BME280;63722;48.858;21.906;2022-10-30T02:59:13;99286.81;;;18.27;55.87
57574;BME280;63722;48.858;21.906;2022-10-30T03:01:38;99270.53;;;18.23;55.56
57574;BME280;63722;48.858;21.906;2022-10-30T03:04:03;99260.53;;;18.18;55.73
57574;BME280;63722;48.858;21.906;2022-10-30T03:06:29;99264.78;;;18.26;55.60
57574;BME280;63722;48.858;21.906;2022-10-30T03:08:54;99262.13;;;18.26;55.79
57574;BME280;63722;48.858;21.906;2022-10-30T03:11:20;99251.31;;;18.21;55.57
57574;BME280;63722;48.858;21.906;2022-10-30T03:13:46;99262.13;;;18.26;55.75
57574;BME280;63722;48.858;21.906;2022-10-30T03:16:18;99269.69;;;18.22;55.81
57574;BME280;63722;48.858;21.906;2022-10-30T03:18:45;99271.91;;;18.25;55.60
57574;BME280;63722;48.858;21.906;2022-10-30T03:21:13;99263.34;;;18.23;55.89
57574;BME280;63722;48.858;21.906;2022-10-30T03:23:38;99257.06;;;18.18;55.76
57574;BME280;63722;48.858;21.906;2022-10-30T03:26:04;99251.31;;;18.21;55.79
57574;BME280;63722;48.858;21.906;2022-10-30T03:28:30;99241.97;;;18.18;55.67
57574;BME280;63722;48.858;21.906;2022-10-30T03:30:58;99237.84;;;18.22;55.86
57574;BME280;63722;48.858;21.906;2022-10-30T03:33:23;99248.22;;;18.24;55.84
57574;BME280;63722;48.858;21.906;2022-10-30T03:35:49;99251.53;;;18.19;55.53
57574;BME280;63722;48.858;21.906;2022-10-30T03:38:14;99259.13;;;18.16;55.79
57574;BME280;63722;48.858;21.906;2022-10-30T03:40:40;99259.13;;;18.16;55.77
57574;BME280;63722;48.858;21.906;2022-10-30T03:43:06;99268.72;;;18.17;55.82
57574;BME280;63722;48.858;21.906;2022-10-30T03:45:32;99282.38;;;18.20;55.72
57574;BME280;63722;48.858;21.906;2022-10-30T03:48:02;99273.19;;;18.23;55.79
57574;BME280;63722;48.858;21.906;2022-10-30T03:50:28;99268.28;;;18.20;55.59
57574;BME280;63722;48.858;21.906;2022-10-30T03:52:55;99288.25;;;18.22;55.67
57574;BME280;63722;48.858;21.906;2022-10-30T03:55:21;99271.53;;;18.22;55.73
57574;BME280;63722;48.858;21.906;2022-10-30T03:57:46;99268.72;;;18.17;55.55
57574;BME280;63722;48.858;21.906;2022-10-30T04:00:12;99273.19;;;18.23;55.58
57574;BME280;63722;48.858;21.906;2022-10-30T04:02:38;99255.81;;;18.20;55.51
57574;BME280;63722;48.858;21.906;2022-10-30T04:05:04;99253.16;;;18.20;55.68
57574;BME280;63722;48.858;21.906;2022-10-30T04:07:29;99250.31;;;18.22;55.65
57574;BME280;63722;48.858;21.906;2022-10-30T04:09:54;99244.84;;;18.17;55.56
57574;BME280;63722;48.858;21.906;2022-10-30T04:12:20;99242.56;;;18.20;55.47
57574;BME280;63722;48.858;21.906;2022-10-30T04:14:45;99247.66;;;18.22;55.64
57574;BME280;63722;48.858;21.906;2022-10-30T04:17:10;99244.19;;;18.21;55.77
57574;BME280;63722;48.858;21.906;2022-10-30T04:19:36;99239.91;;;18.20;55.71
57574;BME280;63722;48.858;21.906;2022-10-30T04:22:01;99237.25;;;18.20;55.56
57574;BME280;63722;48.858;21.906;2022-10-30T04:24:27;99241.75;;;18.20;55.54
57574;BME280;63722;48.858;21.906;2022-10-30T04:26:52;99241.34;;;18.16;55.99
57574;BME280;63722;48.858;21.906;2022-10-30T04:29:17;99246.22;;;18.19;55.80
57574;BME280;63722;48.858;21.906;2022-10-30T04:31:43;99239.53;;;18.10;55.52
57574;BME280;63722;48.858;21.906;2022-10-30T04:34:08;99245.03;;;18.15;55.71
57574;BME280;63722;48.858;21.906;2022-10-30T04:36:33;99254.19;;;18.19;55.81
57574;BME280;63722;48.858;21.906;2022-10-30T04:38:59;99256.47;;;18.16;55.68
57574;BME280;63722;48.858;21.906;2022-10-30T04:41:25;99249.72;;;18.13;55.37
57574;BME280;63722;48.858;21.906;2022-10-30T04:43:50;99262.16;;;18.19;55.79
57574;BME280;63722;48.858;21.906;2022-10-30T04:46:16;99249.09;;;18.18;55.79
57574;BME280;63722;48.858;21.906;2022-10-30T04:48:42;99252.38;;;18.20;55.47
57574;BME280;63722;48.858;21.906;2022-10-30T04:51:08;99249.72;;;18.20;55.52
57574;BME280;63722;48.858;21.906;2022-10-30T04:53:33;99249.94;;;18.18;55.57
57574;BME280;63722;48.858;21.906;2022-10-30T04:55:59;99240.97;;;18.13;55.53
57574;BME280;63722;48.858;21.906;2022-10-30T04:58:24;99252.56;;;18.18;55.51
57574;BME280;63722;48.858;21.906;2022-10-30T05:00:50;99231.00;;;18.08;55.41
57574;BME280;63722;48.858;21.906;2022-10-30T05:03:24;99224.25;;;18.12;55.55
57574;BME280;63722;48.858;21.906;2022-10-30T05:05:57;99228.69;;;18.18;55.46
57574;BME280;63722;48.858;21.906;2022-10-30T05:08:23;99216.06;;;18.14;55.57
57574;BME280;63722;48.858;21.906;2022-10-30T05:10:49;99217.44;;;18.16;55.42
57574;BME280;63722;48.858;21.906;2022-10-30T05:13:14;99225.00;;;18.19;55.40
57574;BME280;63722;48.858;21.906;2022-10-30T05:15:40;99225.19;;;18.18;55.69
57574;BME280;63722;48.858;21.906;2022-10-30T05:18:05;99217.66;;;18.15;55.20
57574;BME280;63722;48.858;21.906;2022-10-30T05:20:31;99229.50;;;18.19;55.86
57574;BME280;63722;48.858;21.906;2022-10-30T05:22:57;99232.34;;;18.17;55.70
57574;BME280;63722;48.858;21.906;2022-10-30T05:25:23;99226.84;;;18.19;55.44
57574;BME280;63722;48.858;21.906;2022-10-30T05:27:49;99212.97;;;18.17;55.50
57574;BME280;63722;48.858;21.906;2022-10-30T05:30:15;99213.78;;;18.17;55.70
57574;BME280;63722;48.858;21.906;2022-10-30T05:32:40;99220.94;;;18.17;55.35
57574;BME280;63722;48.858;21.906;2022-10-30T05:35:06;99217.50;;;18.10;55.53
57574;BME280;63722;48.858;21.906;2022-10-30T05:37:31;99234.81;;;18.19;55.43
57574;BME280;63722;48.858;21.906;2022-10-30T05:39:56;99235.81;;;18.18;55.51
57574;BME280;63722;48.858;21.906;2022-10-30T05:42:22;99233.16;;;18.18;55.67
57574;BME280;63722;48.858;21.906;2022-10-30T05:44:47;99225.63;;;18.15;55.63
57574;BME280;63722;48.858;21.906;2022-10-30T05:47:13;99222.81;;;18.10;55.34
57574;BME280;63722;48.858;21.906;2022-10-30T05:49:38;99236.25;;;18.15;55.26
57574;BME280;63722;48.858;21.906;2022-10-30T05:52:04;99249.09;;;18.18;55.18
57574;BME280;63722;48.858;21.906;2022-10-30T05:54:30;99258.91;;;18.17;55.61
57574;BME280;63722;48.858;21.906;2022-10-30T05:56:56;99245.47;;;18.12;55.31
57574;BME280;63722;48.858;21.906;2022-10-30T05:59:22;99252.78;;;18.17;55.56
57574;BME280;63722;48.858;21.906;2022-10-30T06:01:47;99244.22;;;18.15;55.48
57574;BME280;63722;48.858;21.906;2022-10-30T06:04:13;99238.91;;;18.15;55.98
57574;BME280;63722;48.858;21.906;2022-10-30T06:06:38;99233.81;;;18.13;55.63
57574;BME280;63722;48.858;21.906;2022-10-30T06:09:04;99248.34;;;18.11;55.58
57574;BME280;63722;48.858;21.906;2022-10-30T06:11:29;99251.59;;;18.13;55.21
57574;BME280;63722;48.858;21.906;2022-10-30T06:13:54;99253.84;;;18.09;55.63
57574;BME280;63722;48.858;21.906;2022-10-30T06:16:20;99261.78;;;18.16;55.21
57574;BME280;63722;48.858;21.906;2022-10-30T06:18:45;99252.59;;;18.12;55.56
57574;BME280;63722;48.858;21.906;2022-10-30T06:21:10;99263.41;;;18.17;55.53
57574;BME280;63722;48.858;21.906;2022-10-30T06:23:36;99274.03;;;18.17;55.38
57574;BME280;63722;48.858;21.906;2022-10-30T06:26:01;99258.75;;;18.12;55.57
57574;BME280;63722;48.858;21.906;2022-10-30T06:28:27;99265.88;;;18.12;55.50
57574;BME280;63722;48.858;21.906;2022-10-30T06:30:53;99270.53;;;18.16;55.22
57574;BME280;63722;48.858;21.906;2022-10-30T06:33:19;99261.41;;;18.12;55.56
57574;BME280;63722;48.858;21.906;2022-10-30T06:35:47;99277.50;;;18.17;55.28
57574;BME280;63722;48.858;21.906;2022-10-30T06:38:12;99279.34;;;18.17;55.45
57574;BME280;63722;48.858;21.906;2022-10-30T06:40:39;99276.69;;;18.17;55.67
57574;BME280;63722;48.858;21.906;2022-10-30T06:43:04;99282.78;;;18.17;55.34
57574;BME280;63722;48.858;21.906;2022-10-30T06:45:30;99260.59;;;18.05;55.18
57574;BME280;63722;48.858;21.906;2022-10-30T06:47:55;99282.00;;;18.17;54.98
57574;BME280;63722;48.858;21.906;2022-10-30T06:50:21;99280.13;;;18.17;55.43
57574;BME280;63722;48.858;21.906;2022-10-30T06:52:48;99261.41;;;18.12;55.41
57574;BME280;63722;48.858;21.906;2022-10-30T06:55:13;99280.94;;;18.18;55.52
57574;BME280;63722;48.858;21.906;2022-10-30T06:57:39;99273.81;;;18.18;55.26
57574;BME280;63722;48.858;21.906;2022-10-30T07:00:05;99261.59;;;18.11;55.38
57574;BME280;63722;48.858;21.906;2022-10-30T07:02:31;99269.56;;;18.11;55.57
57574;BME280;63722;48.858;21.906;2022-10-30T07:04:56;99260.56;;;18.12;55.38
57574;BME280;63722;48.858;21.906;2022-10-30T07:07:22;99266.66;;;18.19;55.18
57574;BME280;63722;48.858;21.906;2022-10-30T07:09:47;99268.50;;;18.18;55.27
57574;BME280;63722;48.858;21.906;2022-10-30T07:12:13;99249.34;;;18.10;55.09
57574;BME280;63722;48.858;21.906;2022-10-30T07:14:38;99261.34;;;18.19;55.36
57574;BME280;63722;48.858;21.906;2022-10-30T07:17:03;99271.97;;;18.19;55.12
57574;BME280;63722;48.858;21.906;2022-10-30T07:19:29;99259.34;;;18.14;54.85
57574;BME280;63722;48.858;21.906;2022-10-30T07:21:54;99271.97;;;18.19;55.08
57574;BME280;63722;48.858;21.906;2022-10-30T07:24:20;99255.88;;;18.14;55.15
57574;BME280;63722;48.858;21.906;2022-10-30T07:26:45;99262.56;;;18.16;55.04
57574;BME280;63722;48.858;21.906;2022-10-30T07:29:10;99242.66;;;18.00;55.27
57574;BME280;63722;48.858;21.906;2022-10-30T07:31:36;99265.00;;;18.18;55.33
57574;BME280;63722;48.858;21.906;2022-10-30T07:34:02;99264.84;;;18.13;55.23
57574;BME280;63722;48.858;21.906;2022-10-30T07:36:27;99275.63;;;18.18;54.95
57574;BME280;63722;48.858;21.906;2022-10-30T07:38:52;99271.97;;;18.19;55.22
57574;BME280;63722;48.858;21.906;2022-10-30T07:41:18;99264.22;;;18.17;55.21
57574;BME280;63722;48.858;21.906;2022-10-30T07:43:44;99258.53;;;18.14;55.19
57574;BME280;63722;48.858;21.906;2022-10-30T07:46:10;99261.41;;;18.12;55.13
57574;BME280;63722;48.858;21.906;2022-10-30T07:48:36;99260.13;;;18.15;55.15
57574;BME280;63722;48.858;21.906;2022-10-30T07:51:01;99267.28;;;18.14;55.22
57574;BME280;63722;48.858;21.906;2022-10-30T07:53:27;99266.66;;;18.19;55.38
57574;BME280;63722;48.858;21.906;2022-10-30T07:55:52;99270.31;;;18.18;54.94
57574;BME280;63722;48.858;21.906;2022-10-30T07:58:18;99262.19;;;18.13;55.23
57574;BME280;63722;48.858;21.906;2022-10-30T08:00:43;99259.13;;;18.16;54.88
57574;BME280;63722;48.858;21.906;2022-10-30T08:03:10;99271.97;;;18.19;55.11
57574;BME280;63722;48.858;21.906;2022-10-30T08:05:35;99262.38;;;18.18;55.16
57574;BME280;63722;48.858;21.906;2022-10-30T08:08:01;99267.47;;;18.19;55.24
57574;BME280;63722;48.858;21.906;2022-10-30T08:10:26;99261.19;;;18.14;55.45
57574;BME280;63722;48.858;21.906;2022-10-30T08:12:52;99268.28;;;18.20;54.97
57574;BME280;63722;48.858;21.906;2022-10-30T08:15:18;99268.28;;;18.20;54.89
57574;BME280;63722;48.858;21.906;2022-10-30T08:17:45;99256.47;;;18.16;55.03
57574;BME280;63722;48.858;21.906;2022-10-30T08:20:12;99261.78;;;18.16;55.19
57574;BME280;63722;48.858;21.906;2022-10-30T08:22:45;99247.06;;;18.13;54.95
57574;BME280;63722;48.858;21.906;2022-10-30T08:25:10;99244.63;;;18.18;55.23
57574;BME280;63722;48.858;21.906;2022-10-30T08:27:36;99249.72;;;18.20;55.12
57574;BME280;63722;48.858;21.906;2022-10-30T08:30:02;99243.78;;;18.18;55.12
57574;BME280;63722;48.858;21.906;2022-10-30T08:32:27;99241.56;;;18.15;54.98
57574;BME280;63722;48.858;21.906;2022-10-30T08:34:52;99246.88;;;18.15;55.25
57574;BME280;63722;48.858;21.906;2022-10-30T08:37:18;99245.84;;;18.16;54.89
57574;BME280;63722;48.858;21.906;2022-10-30T08:39:43;99243.56;;;18.19;54.63
57574;BME280;63722;48.858;21.906;2022-10-30T08:42:08;99228.28;;;18.15;55.18
57574;BME280;63722;48.858;21.906;2022-10-30T08:44:34;99241.13;;;18.18;54.96
57574;BME280;63722;48.858;21.906;2022-10-30T08:46:59;99245.00;;;18.22;54.86
57574;BME280;63722;48.858;21.906;2022-10-30T08:49:24;99252.38;;;18.20;55.23
57574;BME280;63722;48.858;21.906;2022-10-30T08:51:50;99235.81;;;18.18;55.04
57574;BME280;63722;48.858;21.906;2022-10-30T08:54:15;99227.06;;;18.17;54.78
57574;BME280;63722;48.858;21.906;2022-10-30T08:56:41;99241.53;;;18.21;54.94
57574;BME280;63722;48.858;21.906;2022-10-30T08:59:06;99245.59;;;18.24;54.65
57574;BME280;63722;48.858;21.906;2022-10-30T09:01:31;99250.47;;;18.27;54.83
57574;BME280;63722;48.858;21.906;2022-10-30T09:03:57;99242.75;;;18.19;55.04
57574;BME280;63722;48.858;21.906;2022-10-30T09:06:22;99251.50;;;18.26;55.06
57574;BME280;63722;48.858;21.906;2022-10-30T09:08:47;99258.06;;;18.23;54.95
57574;BME280;63722;48.858;21.906;2022-10-30T09:11:13;99253.75;;;18.22;54.87
57574;BME280;63722;48.858;21.906;2022-10-30T09:13:38;99257.25;;;18.23;54.72
57574;BME280;63722;48.858;21.906;2022-10-30T09:16:04;99259.28;;;18.21;54.74
57574;BME280;63722;48.858;21.906;2022-10-30T09:18:29;99234.44;;;18.15;54.82
57574;BME280;63722;48.858;21.906;2022-10-30T09:20:55;99250.31;;;18.22;54.92
57574;BME280;63722;48.858;21.906;2022-10-30T09:23:20;99253.97;;;18.21;55.06
57574;BME280;63722;48.858;21.906;2022-10-30T09:25:46;99253.97;;;18.21;54.93
57574;BME280;63722;48.858;21.906;2022-10-30T09:28:11;99235.88;;;18.11;54.83
57574;BME280;63722;48.858;21.906;2022-10-30T09:30:36;99247.84;;;18.20;54.93
57574;BME280;63722;48.858;21.906;2022-10-30T09:33:02;99252.38;;;18.20;54.91
57574;BME280;63722;48.858;21.906;2022-10-30T09:35:28;99248.66;;;18.21;55.02
57574;BME280;63722;48.858;21.906;2022-10-30T09:37:54;99251.94;;;18.23;54.95
57574;BME280;63722;48.858;21.906;2022-10-30T09:43:30;99238.66;;;18.23;54.71
57574;BME280;63722;48.858;21.906;2022-10-30T09:56:48;99237.47;;;18.19;54.77
57574;BME280;63722;48.858;21.906;2022-10-30T09:59:25;99245.00;;;18.22;54.70
57574;BME280;63722;48.858;21.906;2022-10-30T10:04:43;99250.31;;;18.22;54.66
57574;BME280;63722;48.858;21.906;2022-10-30T10:07:22;99244.19;;;18.21;54.76
57574;BME280;63722;48.858;21.906;2022-10-30T10:09:50;99230.28;;;18.19;54.90
57574;BME280;63722;48.858;21.906;2022-10-30T10:12:25;99237.03;;;18.22;54.67
57574;BME280;63722;48.858;21.906;2022-10-30T10:14:55;99234.22;;;18.17;55.04
57574;BME280;63722;48.858;21.906;2022-10-30T10:17:30;99232.94;;;18.19;54.95
57574;BME280;63722;48.858;21.906;2022-10-30T10:19:58;99235.22;;;18.16;54.68
57574;BME280;63722;48.858;21.906;2022-10-30T10:22:51;99238.03;;;18.21;54.79
57574;BME280;63722;48.858;21.906;2022-10-30T10:25:19;99235.78;;;18.24;54.75
57574;BME280;63722;48.858;21.906;2022-10-30T10:28:22;99229.66;;;18.24;54.55
57574;BME280;63722;48.858;21.906;2022-10-30T10:31:19;99224.34;;;18.24;54.83
57574;BME280;63722;48.858;21.906;2022-10-30T10:36:55;99220.09;;;18.23;54.78
57574;BME280;63722;48.858;21.906;2022-10-30T10:45:31;99227.00;;;18.24;54.67
57574;BME280;63722;48.858;21.906;2022-10-30T10:50:56;99211.94;;;18.18;54.71
57574;BME280;63722;48.858;21.906;2022-10-30T10:53:30;99215.78;;;18.22;54.71
57574;BME280;63722;48.858;21.906;2022-10-30T10:55:59;99210.91;;;18.19;54.69
57574;BME280;63722;48.858;21.906;2022-10-30T11:00:55;99213.56;;;18.19;54.88
57574;BME280;63722;48.858;21.906;2022-10-30T11:04:23;99198.06;;;18.16;54.82
57574;BME280;63722;48.858;21.906;2022-10-30T11:06:34;99209.69;;;18.21;54.67
57574;BME280;63722;48.858;21.906;2022-10-30T11:09:17;99199.72;;;18.17;54.43
57574;BME280;63722;48.858;21.906;2022-10-30T11:11:46;99203.53;;;18.21;54.63
57574;BME280;63722;48.858;21.906;2022-10-30T11:14:14;99198.44;;;18.19;54.90
57574;BME280;63722;48.858;21.906;2022-10-30T11:16:58;99193.78;;;18.15;54.62
57574;BME280;63722;48.858;21.906;2022-10-30T11:19:28;99188.31;;;18.10;54.47
57574;BME280;63722;48.858;21.906;2022-10-30T11:21:54;99214.38;;;18.19;54.74
57574;BME280;63722;48.858;21.906;2022-10-30T11:24:35;99205.38;;;18.20;54.66
57574;BME280;63722;48.858;21.906;2022-10-30T11:27:30;99206.19;;;18.21;54.82
57574;BME280;63722;48.858;21.906;2022-10-30T11:30:01;99214.59;;;18.18;54.62
57574;BME280;63722;48.858;21.906;2022-10-30T11:32:29;99206.84;;;18.16;54.64
57574;BME280;63722;48.858;21.906;2022-10-30T11:37:38;99205.00;;;18.17;54.71
57574;BME280;63722;48.858;21.906;2022-10-30T11:40:22;99206.41;;;18.19;54.74
57574;BME280;63722;48.858;21.906;2022-10-30T11:43:02;99191.75;;;18.17;54.40
57574;BME280;63722;48.858;21.906;2022-10-30T11:45:31;99191.91;;;18.22;54.74
57574;BME280;63722;48.858;21.906;2022-10-30T11:47:58;99188.22;;;18.23;54.71
57574;BME280;63722;48.858;21.906;2022-10-30T11:50:29;99190.06;;;18.22;54.47
57574;BME280;63722;48.858;21.906;2022-10-30T11:52:58;99186.00;;;18.20;54.69
57574;BME280;63722;48.858;21.906;2022-10-30T11:55:38;99186.38;;;18.23;54.71
57574;BME280;63722;48.858;21.906;2022-10-30T11:58:05;99191.91;;;18.22;54.50
57574;BME280;63722;48.858;21.906;2022-10-30T12:00:35;99179.50;;;18.16;54.65
57574;BME280;63722;48.858;21.906;2022-10-30T12:03:02;99170.09;;;18.13;54.49
57574;BME280;63722;48.858;21.906;2022-10-30T12:05:40;99187.41;;;18.22;54.67
57574;BME280;63722;48.858;21.906;2022-10-30T12:10:33;99173.16;;;18.17;54.81
57574;BME280;63722;48.858;21.906;2022-10-30T12:13:04;99184.94;;;18.21;54.68
57574;BME280;63722;48.858;21.906;2022-10-30T12:15:35;99179.50;;;18.16;54.42
57574;BME280;63722;48.858;21.906;2022-10-30T12:18:03;99179.66;;;18.21;54.78
57574;BME280;63722;48.858;21.906;2022-10-30T12:20:31;99179.66;;;18.21;54.65
57574;BME280;63722;48.858;21.906;2022-10-30T12:23:07;99183.34;;;18.20;54.66
57574;BME280;63722;48.858;21.906;2022-10-30T12:25:33;99185.38;;;18.18;54.77
57574;BME280;63722;48.858;21.906;2022-10-30T12:28:02;99174.75;;;18.18;54.52
57574;BME280;63722;48.858;21.906;2022-10-30T12:30:31;99170.72;;;18.15;54.44
57574;BME280;63722;48.858;21.906;2022-10-30T12:33:03;99176.41;;;18.19;54.68
57574;BME280;63722;48.858;21.906;2022-10-30T12:37:58;99174.34;;;18.21;54.85
57574;BME280;63722;48.858;21.906;2022-10-30T12:40:29;99169.88;;;18.15;54.65
57574;BME280;63722;48.858;21.906;2022-10-30T12:43:15;99179.88;;;18.19;54.55
57574;BME280;63722;48.858;21.906;2022-10-30T12:45:45;99174.75;;;18.18;54.83
57574;BME280;63722;48.858;21.906;2022-10-30T12:48:21;99177.41;;;18.18;54.62
57574;BME280;63722;48.858;21.906;2022-10-30T12:53:59;99176.03;;;18.15;54.61
57574;BME280;63722;48.858;21.906;2022-10-30T12:56:33;99178.47;;;18.17;54.85
57574;BME280;63722;48.858;21.906;2022-10-30T12:59:32;99177.63;;;18.16;54.47
57574;BME280;63722;48.858;21.906;2022-10-30T13:04:43;99173.16;;;18.17;54.65
57574;BME280;63722;48.858;21.906;2022-10-30T13:10:01;99197.06;;;18.17;54.88
57574;BME280;63722;48.858;21.906;2022-10-30T13:12:31;99197.25;;;18.15;54.62
57574;BME280;63722;48.858;21.906;2022-10-30T13:15:49;99199.09;;;18.15;54.72
57574;BME280;63722;48.858;21.906;2022-10-30T13:18:22;99189.13;;;18.10;54.52
57574;BME280;63722;48.858;21.906;2022-10-30T13:21:12;99201.75;;;18.15;54.75
57574;BME280;63722;48.858;21.906;2022-10-30T13:23:56;99195.63;;;18.14;54.69
57574;BME280;63722;48.858;21.906;2022-10-30T13:26:40;99186.88;;;18.14;54.52
57574;BME280;63722;48.858;21.906;2022-10-30T13:34:43;99199.13;;;18.08;54.73
57574;BME280;63722;48.858;21.906;2022-10-30T13:37:21;99203.00;;;18.12;54.74
57574;BME280;63722;48.858;21.906;2022-10-30T13:42:39;99196.66;;;18.13;54.83
57574;BME280;63722;48.858;21.906;2022-10-30T13:48:15;99194.22;;;18.12;54.76
57574;BME280;63722;48.858;21.906;2022-10-30T13:53:33;99203.22;;;18.11;54.77
57574;BME280;63722;48.858;21.906;2022-10-30T13:56:00;99198.94;;;18.10;54.54
57574;BME280;63722;48.858;21.906;2022-10-30T14:06:49;99188.31;;;18.10;55.00
57574;BME280;63722;48.858;21.906;2022-10-30T14:11:52;99183.44;;;18.06;54.65
57574;BME280;63722;48.858;21.906;2022-10-30T14:14:30;99175.03;;;18.10;54.84
57574;BME280;63722;48.858;21.906;2022-10-30T14:17:15;99177.53;;;18.04;54.80
57574;BME280;63722;48.858;21.906;2022-10-30T14:22:30;99182.41;;;18.07;54.75
57574;BME280;63722;48.858;21.906;2022-10-30T14:24:56;99188.16;;;18.04;54.96
57574;BME280;63722;48.858;21.906;2022-10-30T14:27:26;99191.19;;;18.08;54.87
57574;BME280;63722;48.858;21.906;2022-10-30T14:29:52;99195.69;;;18.07;54.98
57574;BME280;63722;48.858;21.906;2022-10-30T14:43:28;99183.69;;;17.98;54.86
57574;BME280;63722;48.858;21.906;2022-10-30T14:45:59;99201.22;;;18.06;54.73